sensor_id;sensor_type;location;lat;lon;timestamp;temperature;humidity
4922;DHT22;16625;53.624;10.106;2023-06-14T00:01:20;13.70;85.40
4922;DHT22;16625;53.624;10.106;2023-06-14T00:03:48;14.70;99.90
4922;DHT22;16625;53.624;10.106;2023-06-14T00:06:15;15.50;1.00
4922;DHT22;16625;53.624;10.106;2023-06-14T00:08:42;15.10;34.90
4922;DHT22;16625;53.624;10.106;2023-06-14T00:11:09;13.70;1.00
4922;DHT22;16625;53.624;10.106;2023-06-14T00:13:36;15.70;1.00
4922;DHT22;16625;53.624;10.106;2023-06-14T00:16:03;14.90;99.90
4922;DHT22;16625;53.624;10.106;2023-06-14T00:18:30;13.70;1.00
4922;DHT22;16625;53.624;10.106;2023-06-14T00:20:59;14.60;1.00
4922;DHT22;16625;53.624;10.106;2023-06-14T00:23:27;15.70;1.00
4922;DHT22;16625;53.624;10.106;2023-06-14T00:25:54;15.80;1.00
4922;DHT22;16625;53.624;10.106;2023-06-14T00:28:21;13.50;1.00
4922;DHT22;16625;53.624;10.106;2023-06-14T00:30:48;14.00;24.00
4922;DHT22;16625;53.624;10.106;2023-06-14T00:33:15;13.60;1.00
4922;DHT22;16625;53.624;10.106;2023-06-14T00:35:41;14.40;1.00
4922;DHT22;16625;53.624;10.106;2023-06-14T00:38:10;13.50;1.00
4922;DHT22;16625;53.624;10.106;2023-06-14T00:40:36;13.60;99.90
4922;DHT22;16625;53.624;10.106;2023-06-14T00:43:03;13.40;1.00
4922;DHT22;16625;53.624;10.106;2023-06-14T00:45:30;13.40;1.00
4922;DHT22;16625;53.624;10.106;2023-06-14T00:48:01;13.30;1.00
4922;DHT22;16625;53.624;10.106;2023-06-14T00:50:29;13.20;1.00
4922;DHT22;16625;53.624;10.106;2023-06-14T00:52:59;13.10;18.60
4922;DHT22;16625;53.624;10.106;2023-06-14T00:55:27;13.10;99.90
4922;DHT22;16625;53.624;10.106;2023-06-14T00:57:55;13.20;99.90
4922;DHT22;16625;53.624;10.106;2023-06-14T01:00:22;13.20;99.90
4922;DHT22;16625;53.624;10.106;2023-06-14T01:02:49;13.20;65.50
4922;DHT22;16625;53.624;10.106;2023-06-14T01:05:17;13.10;88.80
4922;DHT22;16625;53.624;10.106;2023-06-14T01:07:55;13.00;99.90
4922;DHT22;16625;53.624;10.106;2023-06-14T01:10:35;13.10;99.90
4922;DHT22;16625;53.624;10.106;2023-06-14T01:13:07;13.60;99.90
4922;DHT22;16625;53.624;10.106;2023-06-14T01:15:36;14.40;99.90
4922;DHT22;16625;53.624;10.106;2023-06-14T01:18:05;15.00;99.90
4922;DHT22;16625;53.624;10.106;2023-06-14T01:20:33;12.90;99.90
4922;DHT22;16625;53.624;10.106;2023-06-14T01:33:19;12.80;29.60
4922;DHT22;16625;53.624;10.106;2023-06-14T01:35:48;13.00;85.00
4922;DHT22;16625;53.624;10.106;2023-06-14T01:38:17;13.10;1.00
4922;DHT22;16625;53.624;10.106;2023-06-14T01:40:45;15.40;1.00
4922;DHT22;16625;53.624;10.106;2023-06-14T01:43:13;14.90;1.00
4922;DHT22;16625;53.624;10.106;2023-06-14T01:45:40;15.10;1.00
4922;DHT22;16625;53.624;10.106;2023-06-14T01:48:08;14.10;1.00
4922;DHT22;16625;53.624;10.106;2023-06-14T01:50:37;13.70;95.60
4922;DHT22;16625;53.624;10.106;2023-06-14T01:53:06;14.00;66.20
4922;DHT22;16625;53.624;10.106;2023-06-14T01:55:34;15.20;1.00
4922;DHT22;16625;53.624;10.106;2023-06-14T01:58:03;13.70;99.90
4922;DHT22;16625;53.624;10.106;2023-06-14T02:00:30;14.00;99.90
4922;DHT22;16625;53.624;10.106;2023-06-14T02:02:57;12.70;99.90
4922;DHT22;16625;53.624;10.106;2023-06-14T02:05:24;12.70;1.00
4922;DHT22;16625;53.624;10.106;2023-06-14T02:07:53;12.70;99.90
4922;DHT22;16625;53.624;10.106;2023-06-14T02:10:20;14.70;1.00
4922;DHT22;16625;53.624;10.106;2023-06-14T02:12:47;13.40;1.00
4922;DHT22;16625;53.624;10.106;2023-06-14T02:15:14;12.50;1.00
4922;DHT22;16625;53.624;10.106;2023-06-14T02:17:43;12.50;43.60
4922;DHT22;16625;53.624;10.106;2023-06-14T02:20:11;12.40;99.90
4922;DHT22;16625;53.624;10.106;2023-06-14T02:22:38;12.40;99.90
4922;DHT22;16625;53.624;10.106;2023-06-14T02:25:07;13.00;99.90
4922;DHT22;16625;53.624;10.106;2023-06-14T02:27:34;12.50;1.00
4922;DHT22;16625;53.624;10.106;2023-06-14T02:30:01;13.90;99.90
4922;DHT22;16625;53.624;10.106;2023-06-14T02:32:28;12.30;99.90
4922;DHT22;16625;53.624;10.106;2023-06-14T02:34:55;12.30;1.00
4922;DHT22;16625;53.624;10.106;2023-06-14T02:37:22;12.10;1.00
4922;DHT22;16625;53.624;10.106;2023-06-14T02:39:49;12.20;99.90
4922;DHT22;16625;53.624;10.106;2023-06-14T02:42:17;12.10;99.90
4922;DHT22;16625;53.624;10.106;2023-06-14T02:44:44;12.60;99.90
4922;DHT22;16625;53.624;10.106;2023-06-14T02:47:16;12.00;1.00
4922;DHT22;16625;53.624;10.106;2023-06-14T02:49:43;12.00;1.00
4922;DHT22;16625;53.624;10.106;2023-06-14T02:52:11;12.10;1.00
4922;DHT22;16625;53.624;10.106;2023-06-14T02:54:38;12.00;1.00
4922;DHT22;16625;53.624;10.106;2023-06-14T02:57:05;11.90;43.60
4922;DHT22;16625;53.624;10.106;2023-06-14T02:59:35;11.90;99.90
4922;DHT22;16625;53.624;10.106;2023-06-14T03:02:01;11.80;99.90
4922;DHT22;16625;53.624;10.106;2023-06-14T03:04:28;11.80;1.00
4922;DHT22;16625;53.624;10.106;2023-06-14T03:07:02;11.80;1.00
4922;DHT22;16625;53.624;10.106;2023-06-14T03:09:34;11.80;81.00
4922;DHT22;16625;53.624;10.106;2023-06-14T03:12:01;11.80;99.90
4922;DHT22;16625;53.624;10.106;2023-06-14T03:14:28;12.00;99.90
4922;DHT22;16625;53.624;10.106;2023-06-14T03:16:57;12.20;99.90
4922;DHT22;16625;53.624;10.106;2023-06-14T03:19:24;12.00;99.90
4922;DHT22;16625;53.624;10.106;2023-06-14T03:21:52;12.00;99.90
4922;DHT22;16625;53.624;10.106;2023-06-14T03:24:19;14.00;99.90
4922;DHT22;16625;53.624;10.106;2023-06-14T03:26:46;13.80;99.90
4922;DHT22;16625;53.624;10.106;2023-06-14T03:29:13;13.90;99.90
4922;DHT22;16625;53.624;10.106;2023-06-14T03:31:58;12.40;99.90
4922;DHT22;16625;53.624;10.106;2023-06-14T03:34:24;12.30;99.90
4922;DHT22;16625;53.624;10.106;2023-06-14T03:36:51;12.20;99.90
4922;DHT22;16625;53.624;10.106;2023-06-14T03:39:18;12.20;99.90
4922;DHT22;16625;53.624;10.106;2023-06-14T03:41:45;13.10;99.90
4922;DHT22;16625;53.624;10.106;2023-06-14T03:44:15;12.20;99.90
4922;DHT22;16625;53.624;10.106;2023-06-14T03:46:43;12.30;1.00
4922;DHT22;16625;53.624;10.106;2023-06-14T03:49:11;12.30;1.00
4922;DHT22;16625;53.624;10.106;2023-06-14T03:51:38;12.30;1.00
4922;DHT22;16625;53.624;10.106;2023-06-14T03:54:06;12.40;1.00
4922;DHT22;16625;53.624;10.106;2023-06-14T03:56:33;12.40;1.00
4922;DHT22;16625;53.624;10.106;2023-06-14T03:59:00;14.70;1.00
4922;DHT22;16625;53.624;10.106;2023-06-14T04:01:27;13.40;1.00
4922;DHT22;16625;53.624;10.106;2023-06-14T04:03:56;12.50;1.00
4922;DHT22;16625;53.624;10.106;2023-06-14T04:06:24;12.50;1.00
4922;DHT22;16625;53.624;10.106;2023-06-14T04:08:57;14.10;1.00
4922;DHT22;16625;53.624;10.106;2023-06-14T04:11:28;13.40;1.00
4922;DHT22;16625;53.624;10.106;2023-06-14T04:13:55;12.70;1.00
4922;DHT22;16625;53.624;10.106;2023-06-14T04:16:22;12.70;1.00
4922;DHT22;16625;53.624;10.106;2023-06-14T04:18:48;14.20;1.00
4922;DHT22;16625;53.624;10.106;2023-06-14T04:21:17;13.10;1.00
4922;DHT22;16625;53.624;10.106;2023-06-14T04:23:45;13.50;1.00
4922;DHT22;16625;53.624;10.106;2023-06-14T04:26:12;13.00;1.00
4922;DHT22;16625;53.624;10.106;2023-06-14T04:28:40;13.80;1.00
4922;DHT22;16625;53.624;10.106;2023-06-14T04:31:07;13.20;1.00
4922;DHT22;16625;53.624;10.106;2023-06-14T04:33:35;13.20;1.00
4922;DHT22;16625;53.624;10.106;2023-06-14T04:36:09;13.30;99.90
4922;DHT22;16625;53.624;10.106;2023-06-14T04:38:37;13.80;99.90
4922;DHT22;16625;53.624;10.106;2023-06-14T04:41:05;13.50;99.90
4922;DHT22;16625;53.624;10.106;2023-06-14T04:43:32;13.50;99.90
4922;DHT22;16625;53.624;10.106;2023-06-14T04:46:03;13.60;1.00
4922;DHT22;16625;53.624;10.106;2023-06-14T04:48:31;13.70;1.00
4922;DHT22;16625;53.624;10.106;2023-06-14T04:50:58;13.70;1.00
4922;DHT22;16625;53.624;10.106;2023-06-14T04:53:24;13.70;1.00
4922;DHT22;16625;53.624;10.106;2023-06-14T04:55:54;14.10;99.90
4922;DHT22;16625;53.624;10.106;2023-06-14T04:58:22;15.50;99.90
4922;DHT22;16625;53.624;10.106;2023-06-14T05:00:49;14.50;99.90
4922;DHT22;16625;53.624;10.106;2023-06-14T05:03:16;16.10;99.90
4922;DHT22;16625;53.624;10.106;2023-06-14T05:05:43;15.20;99.90
4922;DHT22;16625;53.624;10.106;2023-06-14T05:08:11;15.30;99.90
4922;DHT22;16625;53.624;10.106;2023-06-14T05:10:38;14.30;99.90
4922;DHT22;16625;53.624;10.106;2023-06-14T05:13:05;14.70;67.20
4922;DHT22;16625;53.624;10.106;2023-06-14T05:15:33;14.40;1.00
4922;DHT22;16625;53.624;10.106;2023-06-14T05:18:00;14.70;99.90
4922;DHT22;16625;53.624;10.106;2023-06-14T05:20:28;15.20;1.00
4922;DHT22;16625;53.624;10.106;2023-06-14T05:22:55;14.90;99.90
4922;DHT22;16625;53.624;10.106;2023-06-14T05:25:23;15.10;99.90
4922;DHT22;16625;53.624;10.106;2023-06-14T05:27:50;15.00;1.00
4922;DHT22;16625;53.624;10.106;2023-06-14T05:30:17;15.20;99.90
4922;DHT22;16625;53.624;10.106;2023-06-14T05:32:45;15.70;99.90
4922;DHT22;16625;53.624;10.106;2023-06-14T05:35:12;15.60;1.00
4922;DHT22;16625;53.624;10.106;2023-06-14T05:37:39;15.50;1.00
4922;DHT22;16625;53.624;10.106;2023-06-14T05:40:08;15.60;99.90
4922;DHT22;16625;53.624;10.106;2023-06-14T05:42:35;15.60;99.90
4922;DHT22;16625;53.624;10.106;2023-06-14T05:45:02;15.90;99.90
4922;DHT22;16625;53.624;10.106;2023-06-14T05:47:30;15.80;1.00
4922;DHT22;16625;53.624;10.106;2023-06-14T05:49:58;16.00;1.00
4922;DHT22;16625;53.624;10.106;2023-06-14T05:52:25;16.00;1.00
4922;DHT22;16625;53.624;10.106;2023-06-14T05:54:52;16.50;99.90
4922;DHT22;16625;53.624;10.106;2023-06-14T05:57:19;16.40;99.90
4922;DHT22;16625;53.624;10.106;2023-06-14T05:59:46;16.60;99.90
4922;DHT22;16625;53.624;10.106;2023-06-14T06:02:13;16.40;38.20
4922;DHT22;16625;53.624;10.106;2023-06-14T06:04:40;16.40;1.00
4922;DHT22;16625;53.624;10.106;2023-06-14T06:07:09;16.30;1.00
4922;DHT22;16625;53.624;10.106;2023-06-14T06:09:36;16.50;1.00
4922;DHT22;16625;53.624;10.106;2023-06-14T06:12:04;16.50;99.90
4922;DHT22;16625;53.624;10.106;2023-06-14T06:14:32;16.60;99.90
4922;DHT22;16625;53.624;10.106;2023-06-14T06:16:59;16.80;99.90
4922;DHT22;16625;53.624;10.106;2023-06-14T06:19:26;16.90;99.90
4922;DHT22;16625;53.624;10.106;2023-06-14T06:21:53;17.00;87.60
4922;DHT22;16625;53.624;10.106;2023-06-14T06:24:22;17.20;1.00
4922;DHT22;16625;53.624;10.106;2023-06-14T06:26:49;17.40;1.00
4922;DHT22;16625;53.624;10.106;2023-06-14T06:29:17;17.50;99.90
4922;DHT22;16625;53.624;10.106;2023-06-14T06:31:44;17.70;99.90
4922;DHT22;16625;53.624;10.106;2023-06-14T06:34:12;17.80;99.90
4922;DHT22;16625;53.624;10.106;2023-06-14T06:36:38;17.80;85.00
4922;DHT22;16625;53.624;10.106;2023-06-14T06:39:05;17.90;1.00
4922;DHT22;16625;53.624;10.106;2023-06-14T06:41:38;18.00;1.00
4922;DHT22;16625;53.624;10.106;2023-06-14T06:44:05;18.10;99.90
4922;DHT22;16625;53.624;10.106;2023-06-14T06:46:32;18.20;1.00
4922;DHT22;16625;53.624;10.106;2023-06-14T06:49:00;18.30;99.90
4922;DHT22;16625;53.624;10.106;2023-06-14T06:51:27;18.30;56.10
4922;DHT22;16625;53.624;10.106;2023-06-14T06:53:54;18.50;1.00
4922;DHT22;16625;53.624;10.106;2023-06-14T06:56:21;18.60;99.90
4922;DHT22;16625;53.624;10.106;2023-06-14T06:58:51;18.70;99.90
4922;DHT22;16625;53.624;10.106;2023-06-14T07:01:18;18.80;99.90
4922;DHT22;16625;53.624;10.106;2023-06-14T07:03:45;18.90;84.00
4922;DHT22;16625;53.624;10.106;2023-06-14T07:06:12;19.10;1.00
4922;DHT22;16625;53.624;10.106;2023-06-14T07:08:39;19.10;1.00
4922;DHT22;16625;53.624;10.106;2023-06-14T07:11:06;19.20;1.00
4922;DHT22;16625;53.624;10.106;2023-06-14T07:13:33;19.30;1.00
4922;DHT22;16625;53.624;10.106;2023-06-14T07:16:03;19.50;1.00
4922;DHT22;16625;53.624;10.106;2023-06-14T07:18:31;19.50;1.00
4922;DHT22;16625;53.624;10.106;2023-06-14T07:20:58;19.60;1.00
4922;DHT22;16625;53.624;10.106;2023-06-14T07:23:25;19.70;1.00
4922;DHT22;16625;53.624;10.106;2023-06-14T07:25:52;19.90;1.00
4922;DHT22;16625;53.624;10.106;2023-06-14T07:28:19;20.00;99.90
4922;DHT22;16625;53.624;10.106;2023-06-14T07:30:46;20.20;99.90
4922;DHT22;16625;53.624;10.106;2023-06-14T07:33:20;20.30;99.90
4922;DHT22;16625;53.624;10.106;2023-06-14T07:38:12;20.40;99.90
4922;DHT22;16625;53.624;10.106;2023-06-14T07:40:39;20.50;99.90
4922;DHT22;16625;53.624;10.106;2023-06-14T07:43:06;20.60;99.90
4922;DHT22;16625;53.624;10.106;2023-06-14T07:45:33;20.70;99.90
4922;DHT22;16625;53.624;10.106;2023-06-14T07:47:59;20.70;99.90
4922;DHT22;16625;53.624;10.106;2023-06-14T07:50:28;20.90;99.90
4922;DHT22;16625;53.624;10.106;2023-06-14T07:52:55;20.80;99.90
4922;DHT22;16625;53.624;10.106;2023-06-14T07:55:22;20.90;99.90
4922;DHT22;16625;53.624;10.106;2023-06-14T07:57:50;20.80;99.90
4922;DHT22;16625;53.624;10.106;2023-06-14T08:00:19;20.90;99.90
4922;DHT22;16625;53.624;10.106;2023-06-14T08:02:46;21.10;99.90
4922;DHT22;16625;53.624;10.106;2023-06-14T08:05:13;21.10;99.90
4922;DHT22;16625;53.624;10.106;2023-06-14T08:07:41;21.20;99.90
4922;DHT22;16625;53.624;10.106;2023-06-14T08:10:08;21.30;99.90
4922;DHT22;16625;53.624;10.106;2023-06-14T08:12:37;21.20;99.90
4922;DHT22;16625;53.624;10.106;2023-06-14T08:15:04;21.40;99.90
4922;DHT22;16625;53.624;10.106;2023-06-14T08:17:31;21.40;99.90
4922;DHT22;16625;53.624;10.106;2023-06-14T08:19:58;21.40;99.90
4922;DHT22;16625;53.624;10.106;2023-06-14T08:22:25;21.20;99.90
4922;DHT22;16625;53.624;10.106;2023-06-14T08:24:55;21.30;99.90
4922;DHT22;16625;53.624;10.106;2023-06-14T08:27:22;21.40;99.90
4922;DHT22;16625;53.624;10.106;2023-06-14T08:29:49;21.70;99.90
4922;DHT22;16625;53.624;10.106;2023-06-14T08:32:16;21.70;99.90
4922;DHT22;16625;53.624;10.106;2023-06-14T08:34:46;21.90;99.90
4922;DHT22;16625;53.624;10.106;2023-06-14T08:37:13;21.80;99.90
4922;DHT22;16625;53.624;10.106;2023-06-14T08:39:41;21.70;99.90
4922;DHT22;16625;53.624;10.106;2023-06-14T08:42:10;21.80;99.90
4922;DHT22;16625;53.624;10.106;2023-06-14T08:44:39;21.90;99.90
4922;DHT22;16625;53.624;10.106;2023-06-14T08:47:07;22.10;99.90
4922;DHT22;16625;53.624;10.106;2023-06-14T08:49:36;22.30;99.90
4922;DHT22;16625;53.624;10.106;2023-06-14T08:52:05;22.40;99.90
4922;DHT22;16625;53.624;10.106;2023-06-14T08:54:36;22.50;99.90
4922;DHT22;16625;53.624;10.106;2023-06-14T08:57:11;22.80;99.90
4922;DHT22;16625;53.624;10.106;2023-06-14T08:59:46;22.80;99.90
4922;DHT22;16625;53.624;10.106;2023-06-14T09:02:14;22.80;99.90
4922;DHT22;16625;53.624;10.106;2023-06-14T09:04:43;22.70;99.90
4922;DHT22;16625;53.624;10.106;2023-06-14T09:07:10;22.80;99.90
4922;DHT22;16625;53.624;10.106;2023-06-14T09:09:41;22.90;99.90
4922;DHT22;16625;53.624;10.106;2023-06-14T09:12:08;23.00;99.90
4922;DHT22;16625;53.624;10.106;2023-06-14T09:14:39;23.00;99.90
4922;DHT22;16625;53.624;10.106;2023-06-14T09:17:08;23.00;99.90
4922;DHT22;16625;53.624;10.106;2023-06-14T09:19:35;23.20;99.90
4922;DHT22;16625;53.624;10.106;2023-06-14T09:22:03;22.90;99.90
4922;DHT22;16625;53.624;10.106;2023-06-14T09:24:30;23.20;99.90
4922;DHT22;16625;53.624;10.106;2023-06-14T09:26:57;23.40;99.90
4922;DHT22;16625;53.624;10.106;2023-06-14T09:29:24;23.60;99.90
4922;DHT22;16625;53.624;10.106;2023-06-14T09:31:53;23.70;99.90
4922;DHT22;16625;53.624;10.106;2023-06-14T09:34:21;23.70;99.90
4922;DHT22;16625;53.624;10.106;2023-06-14T09:36:49;23.70;99.90
4922;DHT22;16625;53.624;10.106;2023-06-14T09:39:17;23.60;99.90
4922;DHT22;16625;53.624;10.106;2023-06-14T09:41:44;23.60;99.90
4922;DHT22;16625;53.624;10.106;2023-06-14T09:44:11;23.80;99.90
4922;DHT22;16625;53.624;10.106;2023-06-14T09:46:38;23.90;99.90
4922;DHT22;16625;53.624;10.106;2023-06-14T09:49:07;24.20;99.90
4922;DHT22;16625;53.624;10.106;2023-06-14T09:51:36;24.20;99.90
4922;DHT22;16625;53.624;10.106;2023-06-14T09:54:03;24.40;99.90
4922;DHT22;16625;53.624;10.106;2023-06-14T09:56:36;24.50;99.90
4922;DHT22;16625;53.624;10.106;2023-06-14T09:59:04;24.50;99.90
4922;DHT22;16625;53.624;10.106;2023-06-14T10:01:33;24.50;99.90
4922;DHT22;16625;53.624;10.106;2023-06-14T10:04:03;24.20;99.90
4922;DHT22;16625;53.624;10.106;2023-06-14T10:06:34;24.50;99.90
4922;DHT22;16625;53.624;10.106;2023-06-14T10:09:04;24.20;99.90
4922;DHT22;16625;53.624;10.106;2023-06-14T10:11:32;23.90;99.90
4922;DHT22;16625;53.624;10.106;2023-06-14T10:13:59;23.90;99.90
4922;DHT22;16625;53.624;10.106;2023-06-14T10:16:30;24.20;99.90
4922;DHT22;16625;53.624;10.106;2023-06-14T10:19:04;24.60;99.90
4922;DHT22;16625;53.624;10.106;2023-06-14T10:21:41;24.80;99.90
4922;DHT22;16625;53.624;10.106;2023-06-14T10:24:13;25.00;99.90
4922;DHT22;16625;53.624;10.106;2023-06-14T10:26:51;25.30;99.90
4922;DHT22;16625;53.624;10.106;2023-06-14T10:29:18;24.70;99.90
4922;DHT22;16625;53.624;10.106;2023-06-14T10:31:47;24.30;99.90
4922;DHT22;16625;53.624;10.106;2023-06-14T10:34:22;24.20;99.90
4922;DHT22;16625;53.624;10.106;2023-06-14T10:37:02;24.20;99.90
4922;DHT22;16625;53.624;10.106;2023-06-14T10:39:31;24.40;99.90
4922;DHT22;16625;53.624;10.106;2023-06-14T10:42:02;24.60;99.90
4922;DHT22;16625;53.624;10.106;2023-06-14T10:44:39;24.80;99.90
4922;DHT22;16625;53.624;10.106;2023-06-14T10:47:07;25.10;99.90
4922;DHT22;16625;53.624;10.106;2023-06-14T10:49:39;24.80;99.90
4922;DHT22;16625;53.624;10.106;2023-06-14T10:52:10;25.30;99.90
4922;DHT22;16625;53.624;10.106;2023-06-14T10:55:11;25.60;99.90
4922;DHT22;16625;53.624;10.106;2023-06-14T10:57:41;26.10;99.90
4922;DHT22;16625;53.624;10.106;2023-06-14T11:00:10;26.40;99.90
4922;DHT22;16625;53.624;10.106;2023-06-14T11:03:17;26.10;99.90
4922;DHT22;16625;53.624;10.106;2023-06-14T11:05:51;25.30;99.90
4922;DHT22;16625;53.624;10.106;2023-06-14T11:08:40;25.30;99.90
4922;DHT22;16625;53.624;10.106;2023-06-14T11:11:13;25.30;99.90
4922;DHT22;16625;53.624;10.106;2023-06-14T11:13:45;25.40;99.90
4922;DHT22;16625;53.624;10.106;2023-06-14T11:16:13;25.60;99.90
4922;DHT22;16625;53.624;10.106;2023-06-14T11:18:41;25.50;99.90
4922;DHT22;16625;53.624;10.106;2023-06-14T11:21:08;25.60;99.90
4922;DHT22;16625;53.624;10.106;2023-06-14T11:23:35;26.10;99.90
4922;DHT22;16625;53.624;10.106;2023-06-14T11:26:04;25.90;99.90
4922;DHT22;16625;53.624;10.106;2023-06-14T11:28:38;25.50;99.90
4922;DHT22;16625;53.624;10.106;2023-06-14T11:31:05;25.50;99.90
4922;DHT22;16625;53.624;10.106;2023-06-14T11:33:33;25.50;99.90
4922;DHT22;16625;53.624;10.106;2023-06-14T11:36:02;25.90;99.90
4922;DHT22;16625;53.624;10.106;2023-06-14T11:38:29;25.70;99.90
4922;DHT22;16625;53.624;10.106;2023-06-14T11:40:59;25.60;99.90
4922;DHT22;16625;53.624;10.106;2023-06-14T11:43:28;25.30;99.90
4922;DHT22;16625;53.624;10.106;2023-06-14T11:45:57;25.00;99.90
4922;DHT22;16625;53.624;10.106;2023-06-14T11:48:36;25.20;99.90
4922;DHT22;16625;53.624;10.106;2023-06-14T11:51:03;25.30;99.90
4922;DHT22;16625;53.624;10.106;2023-06-14T11:53:29;25.70;99.90
4922;DHT22;16625;53.624;10.106;2023-06-14T11:55:57;25.40;99.90
4922;DHT22;16625;53.624;10.106;2023-06-14T11:58:25;25.30;99.90
4922;DHT22;16625;53.624;10.106;2023-06-14T12:00:54;25.10;99.90
4922;DHT22;16625;53.624;10.106;2023-06-14T12:03:25;25.10;99.90
4922;DHT22;16625;53.624;10.106;2023-06-14T12:06:03;25.40;99.90
4922;DHT22;16625;53.624;10.106;2023-06-14T12:08:34;25.40;99.90
4922;DHT22;16625;53.624;10.106;2023-06-14T12:11:06;25.70;99.90
4922;DHT22;16625;53.624;10.106;2023-06-14T12:13:34;25.90;99.90
4922;DHT22;16625;53.624;10.106;2023-06-14T12:16:03;26.50;99.90
4922;DHT22;16625;53.624;10.106;2023-06-14T12:18:34;26.80;99.90
4922;DHT22;16625;53.624;10.106;2023-06-14T12:21:02;26.80;99.90
4922;DHT22;16625;53.624;10.106;2023-06-14T12:23:43;26.60;99.90
4922;DHT22;16625;53.624;10.106;2023-06-14T12:26:13;26.20;99.90
4922;DHT22;16625;53.624;10.106;2023-06-14T12:28:40;26.10;99.90
4922;DHT22;16625;53.624;10.106;2023-06-14T12:31:11;26.50;99.90
4922;DHT22;16625;53.624;10.106;2023-06-14T12:33:39;26.70;99.90
4922;DHT22;16625;53.624;10.106;2023-06-14T12:36:07;26.80;99.90
4922;DHT22;16625;53.624;10.106;2023-06-14T12:38:34;26.50;99.90
4922;DHT22;16625;53.624;10.106;2023-06-14T12:41:02;26.00;99.90
4922;DHT22;16625;53.624;10.106;2023-06-14T12:43:29;26.10;99.90
4922;DHT22;16625;53.624;10.106;2023-06-14T12:45:55;26.30;99.90
4922;DHT22;16625;53.624;10.106;2023-06-14T12:48:24;26.60;99.90
4922;DHT22;16625;53.624;10.106;2023-06-14T12:50:52;26.70;99.90
4922;DHT22;16625;53.624;10.106;2023-06-14T12:53:19;26.80;99.90
4922;DHT22;16625;53.624;10.106;2023-06-14T12:55:47;27.00;99.90
4922;DHT22;16625;53.624;10.106;2023-06-14T12:58:13;27.30;99.90
4922;DHT22;16625;53.624;10.106;2023-06-14T13:00:42;27.20;99.90
4922;DHT22;16625;53.624;10.106;2023-06-14T13:03:10;27.40;99.90
4922;DHT22;16625;53.624;10.106;2023-06-14T13:05:38;27.10;99.90
4922;DHT22;16625;53.624;10.106;2023-06-14T13:08:07;27.30;99.90
4922;DHT22;16625;53.624;10.106;2023-06-14T13:10:34;27.20;99.90
4922;DHT22;16625;53.624;10.106;2023-06-14T13:13:01;27.20;99.90
4922;DHT22;16625;53.624;10.106;2023-06-14T13:15:28;26.90;99.90
4922;DHT22;16625;53.624;10.106;2023-06-14T13:17:55;26.10;99.90
4922;DHT22;16625;53.624;10.106;2023-06-14T13:20:22;25.70;99.90
4922;DHT22;16625;53.624;10.106;2023-06-14T13:22:50;25.80;99.90
4922;DHT22;16625;53.624;10.106;2023-06-14T13:25:17;25.90;99.90
4922;DHT22;16625;53.624;10.106;2023-06-14T13:27:44;26.20;99.90
4922;DHT22;16625;53.624;10.106;2023-06-14T13:30:12;26.40;99.90
4922;DHT22;16625;53.624;10.106;2023-06-14T13:32:39;26.40;99.90
4922;DHT22;16625;53.624;10.106;2023-06-14T13:35:06;26.50;99.90
4922;DHT22;16625;53.624;10.106;2023-06-14T13:37:33;26.20;99.90
4922;DHT22;16625;53.624;10.106;2023-06-14T13:40:02;26.30;99.90
4922;DHT22;16625;53.624;10.106;2023-06-14T13:42:29;26.50;99.90
4922;DHT22;16625;53.624;10.106;2023-06-14T13:44:58;26.30;99.90
4922;DHT22;16625;53.624;10.106;2023-06-14T13:47:25;26.10;99.90
4922;DHT22;16625;53.624;10.106;2023-06-14T13:49:51;25.60;99.90
4922;DHT22;16625;53.624;10.106;2023-06-14T13:52:18;25.50;99.90
4922;DHT22;16625;53.624;10.106;2023-06-14T13:54:45;25.70;99.90
4922;DHT22;16625;53.624;10.106;2023-06-14T13:57:14;26.10;99.90
4922;DHT22;16625;53.624;10.106;2023-06-14T13:59:41;26.40;99.90
4922;DHT22;16625;53.624;10.106;2023-06-14T14:02:09;26.50;99.90
4922;DHT22;16625;53.624;10.106;2023-06-14T14:04:36;26.60;99.90
4922;DHT22;16625;53.624;10.106;2023-06-14T14:07:04;26.80;99.90
4922;DHT22;16625;53.624;10.106;2023-06-14T14:09:31;26.70;99.90
4922;DHT22;16625;53.624;10.106;2023-06-14T14:11:59;26.20;99.90
4922;DHT22;16625;53.624;10.106;2023-06-14T14:14:27;26.20;99.90
4922;DHT22;16625;53.624;10.106;2023-06-14T14:16:54;26.20;99.90
4922;DHT22;16625;53.624;10.106;2023-06-14T14:19:21;26.20;99.90
4922;DHT22;16625;53.624;10.106;2023-06-14T14:21:48;26.20;99.90
4922;DHT22;16625;53.624;10.106;2023-06-14T14:24:15;26.20;99.90
4922;DHT22;16625;53.624;10.106;2023-06-14T14:26:42;26.30;99.90
4922;DHT22;16625;53.624;10.106;2023-06-14T14:29:09;26.40;99.90
4922;DHT22;16625;53.624;10.106;2023-06-14T14:31:38;26.30;99.90
4922;DHT22;16625;53.624;10.106;2023-06-14T14:34:05;26.10;99.90
4922;DHT22;16625;53.624;10.106;2023-06-14T14:36:32;26.20;99.90
4922;DHT22;16625;53.624;10.106;2023-06-14T14:39:03;26.10;99.90
4922;DHT22;16625;53.624;10.106;2023-06-14T14:41:30;26.20;99.90
4922;DHT22;16625;53.624;10.106;2023-06-14T14:43:57;26.30;99.90
4922;DHT22;16625;53.624;10.106;2023-06-14T14:46:24;26.40;99.90
4922;DHT22;16625;53.624;10.106;2023-06-14T14:48:53;26.40;99.90
4922;DHT22;16625;53.624;10.106;2023-06-14T14:51:19;26.10;99.90
4922;DHT22;16625;53.624;10.106;2023-06-14T14:53:46;26.00;99.90
4922;DHT22;16625;53.624;10.106;2023-06-14T14:56:13;26.00;99.90
4922;DHT22;16625;53.624;10.106;2023-06-14T14:58:40;25.90;99.90
4922;DHT22;16625;53.624;10.106;2023-06-14T15:01:07;26.10;99.90
4922;DHT22;16625;53.624;10.106;2023-06-14T15:03:34;26.10;99.90
4922;DHT22;16625;53.624;10.106;2023-06-14T15:06:02;25.90;99.90
4922;DHT22;16625;53.624;10.106;2023-06-14T15:08:29;25.60;99.90
4922;DHT22;16625;53.624;10.106;2023-06-14T15:10:56;25.60;99.90
4922;DHT22;16625;53.624;10.106;2023-06-14T15:13:23;25.70;99.90
4922;DHT22;16625;53.624;10.106;2023-06-14T15:15:50;25.80;99.90
4922;DHT22;16625;53.624;10.106;2023-06-14T15:18:18;25.80;99.90
4922;DHT22;16625;53.624;10.106;2023-06-14T15:20:46;25.80;99.90
4922;DHT22;16625;53.624;10.106;2023-06-14T15:23:14;25.70;99.90
4922;DHT22;16625;53.624;10.106;2023-06-14T15:25:45;25.60;99.90
4922;DHT22;16625;53.624;10.106;2023-06-14T15:28:14;25.80;99.90
4922;DHT22;16625;53.624;10.106;2023-06-14T15:30:40;25.70;99.90
4922;DHT22;16625;53.624;10.106;2023-06-14T15:33:07;25.70;99.90
4922;DHT22;16625;53.624;10.106;2023-06-14T15:35:34;25.80;99.90
4922;DHT22;16625;53.624;10.106;2023-06-14T15:38:02;25.80;99.90
4922;DHT22;16625;53.624;10.106;2023-06-14T15:40:30;25.80;99.90
4922;DHT22;16625;53.624;10.106;2023-06-14T15:42:57;25.80;99.90
4922;DHT22;16625;53.624;10.106;2023-06-14T15:45:24;25.60;99.90
4922;DHT22;16625;53.624;10.106;2023-06-14T15:47:52;25.60;99.90
4922;DHT22;16625;53.624;10.106;2023-06-14T15:50:19;25.60;99.90
4922;DHT22;16625;53.624;10.106;2023-06-14T15:52:46;25.70;99.90
4922;DHT22;16625;53.624;10.106;2023-06-14T15:55:13;25.60;99.90